Time;durP1;ratioP1;P1;durP2;ratioP2;P2;SDS_P1;SDS_P2;PMS_P1;PMS_P2;Temp;Humidity;BMP_temperature;BMP_pressure;BME280_temperature;BME280_humidity;BME280_pressure;Samples;Min_cycle;Max_cycle;Signal;HPM_P1;HPM_P2
2021/12/16 00:09:36;;;;;;;;;;;6.10;99.90;;;;;;5109080;28;20441;-70
2021/12/16 00:29:04;;;;;;;;;;;6.10;99.90;;;;;;5112169;28;19992;-70
2021/12/16 00:34:04;;;;;;;;;;;6.00;99.90;;;;;;5110944;28;19968;-70
2021/12/16 00:36:31;;;;;;;;;;;6.00;99.90;;;;;;5111255;28;19967;-70
2021/12/16 00:38:57;;;;;;;;;;;6.00;99.90;;;;;;5110001;28;19916;-70
2021/12/16 00:41:23;;;;;;;;;;;6.00;99.90;;;;;;5095362;28;19926;-70
2021/12/16 00:44:06;;;;;;;;;;;6.00;99.90;;;;;;5109931;28;19921;-70
2021/12/16 00:54:31;;;;;;;;;;;6.00;99.90;;;;;;5064190;28;19919;-70
2021/12/16 00:57:02;;;;;;;;;;;6.00;99.90;;;;;;5112209;28;19987;-70
2021/12/16 00:59:33;;;;;;;;;;;6.00;99.90;;;;;;5092682;28;20277;-70
2021/12/16 01:02:18;;;;;;;;;;;6.00;99.90;;;;;;5109257;28;19989;-70
2021/12/16 01:05:16;;;;;;;;;;;5.90;99.90;;;;;;5094865;28;19916;-70
2021/12/16 01:08:25;;;;;;;;;;;5.90;99.90;;;;;;5110315;27;20494;-70
2021/12/16 01:33:35;;;;;;;;;;;6.00;99.90;;;;;;5104718;27;19919;-70
2021/12/16 01:35:43;;;;;;;;;;;6.00;99.90;;;;;;5113967;27;19957;-70
2021/12/16 01:51:57;;;;;;;;;;;6.00;99.90;;;;;;5113171;27;19927;-70
2021/12/16 01:57:00;;;;;;;;;;;6.00;99.90;;;;;;5110756;27;20011;-70
2021/12/16 01:59:33;;;;;;;;;;;6.10;99.90;;;;;;5112737;27;19950;-70
2021/12/16 02:02:11;;;;;;;;;;;6.10;99.90;;;;;;5117546;27;19964;-70
2021/12/16 02:04:42;;;;;;;;;;;6.20;99.90;;;;;;5114730;27;19977;-70
2021/12/16 02:07:26;;;;;;;;;;;6.20;99.90;;;;;;5108128;27;19915;-70
2021/12/16 02:09:56;;;;;;;;;;;6.30;99.90;;;;;;5110275;27;19919;-70
2021/12/16 02:12:51;;;;;;;;;;;6.30;99.90;;;;;;5109272;27;19926;-70
2021/12/16 02:29:24;;;;;;;;;;;6.60;99.90;;;;;;5109694;27;19972;-70
2021/12/16 02:32:01;;;;;;;;;;;6.60;99.90;;;;;;5114341;27;19919;-70
2021/12/16 02:35:00;;;;;;;;;;;6.60;99.90;;;;;;5114517;27;20324;-70
2021/12/16 02:37:18;;;;;;;;;;;6.70;99.90;;;;;;5125810;27;19919;-70
2021/12/16 02:39:44;;;;;;;;;;;6.70;99.90;;;;;;5113630;27;20458;-71
2021/12/16 02:42:15;;;;;;;;;;;6.70;99.90;;;;;;5112585;27;19916;-71
2021/12/16 02:49:59;;;;;;;;;;;6.80;99.90;;;;;;5112991;27;20024;-71
2021/12/16 02:52:26;;;;;;;;;;;6.90;99.90;;;;;;5114367;27;19925;-70
2021/12/16 02:54:52;;;;;;;;;;;6.90;99.90;;;;;;5094721;27;19972;-71
2021/12/16 02:57:19;;;;;;;;;;;7.00;99.90;;;;;;5114706;27;19966;-71
2021/12/16 02:59:45;;;;;;;;;;;7.00;99.90;;;;;;5113538;27;20008;-71
2021/12/16 03:02:14;;;;;;;;;;;7.00;99.90;;;;;;5109933;27;19934;-71
2021/12/16 03:04:42;;;;;;;;;;;7.00;99.90;;;;;;5106586;27;19919;-71
2021/12/16 03:07:11;;;;;;;;;;;7.00;99.90;;;;;;5114485;27;19959;-70
2021/12/16 03:14:43;;;;;;;;;;;7.10;99.90;;;;;;5113594;27;19997;-70
2021/12/16 03:17:18;;;;;;;;;;;7.10;99.90;;;;;;5113382;27;19925;-71
2021/12/16 03:19:59;;;;;;;;;;;7.20;99.90;;;;;;5112908;27;19915;-70
2021/12/16 03:25:18;;;;;;;;;;;7.20;99.90;;;;;;5113300;27;19916;-70
2021/12/16 03:30:47;;;;;;;;;;;7.30;99.90;;;;;;5111386;27;20001;-71
2021/12/16 03:33:21;;;;;;;;;;;7.30;99.90;;;;;;5111944;27;20366;-71
2021/12/16 03:38:32;;;;;;;;;;;7.40;99.90;;;;;;5112090;27;20327;-71
2021/12/16 03:40:58;;;;;;;;;;;7.40;99.90;;;;;;5111989;27;19919;-71
2021/12/16 03:43:24;;;;;;;;;;;7.40;99.90;;;;;;5111978;27;19916;-70
2021/12/16 03:48:39;;;;;;;;;;;7.40;99.90;;;;;;5111450;27;19915;-70
2021/12/16 03:51:09;;;;;;;;;;;7.40;99.90;;;;;;5112462;27;19923;-71
2021/12/16 03:53:35;;;;;;;;;;;7.40;99.90;;;;;;5130611;27;19919;-70
2021/12/16 03:56:00;;;;;;;;;;;7.40;99.90;;;;;;5111684;27;19922;-71
2021/12/16 03:58:26;;;;;;;;;;;7.40;99.90;;;;;;5111845;28;19916;-71
2021/12/16 04:00:54;;;;;;;;;;;7.40;99.90;;;;;;5105505;27;19915;-70
2021/12/16 04:03:20;;;;;;;;;;;7.40;99.90;;;;;;5111859;28;19915;-70
2021/12/16 04:05:46;;;;;;;;;;;7.40;99.90;;;;;;5109702;27;19938;-71
2021/12/16 04:08:12;;;;;;;;;;;7.50;99.90;;;;;;5111740;28;19921;-71
2021/12/16 04:10:42;;;;;;;;;;;7.50;99.90;;;;;;5110039;27;19920;-70
2021/12/16 04:13:08;;;;;;;;;;;7.50;99.90;;;;;;5105362;28;19919;-71
2021/12/16 04:15:34;;;;;;;;;;;7.40;99.90;;;;;;5111571;28;20378;-71
2021/12/16 04:18:00;;;;;;;;;;;7.50;99.90;;;;;;5091722;28;19973;-71
2021/12/16 04:20:26;;;;;;;;;;;7.50;99.90;;;;;;5110922;28;19955;-71
2021/12/16 04:22:52;;;;;;;;;;;7.50;99.90;;;;;;5111138;28;20009;-70
2021/12/16 04:25:20;;;;;;;;;;;7.60;99.90;;;;;;5111074;28;19922;-70
2021/12/16 04:27:46;;;;;;;;;;;7.60;99.90;;;;;;5126105;27;19954;-71
2021/12/16 04:30:12;;;;;;;;;;;7.60;99.90;;;;;;5111063;28;19919;-71
2021/12/16 04:32:38;;;;;;;;;;;7.60;99.90;;;;;;5106515;27;20373;-71
2021/12/16 04:35:04;;;;;;;;;;;7.60;99.90;;;;;;5106593;28;19915;-71
2021/12/16 04:37:30;;;;;;;;;;;7.60;99.90;;;;;;5129924;28;20381;-70
2021/12/16 04:39:55;;;;;;;;;;;7.60;99.90;;;;;;5108482;28;19915;-71
2021/12/16 04:42:25;;;;;;;;;;;7.60;99.90;;;;;;5112546;27;19930;-71
2021/12/16 04:44:50;;;;;;;;;;;7.70;99.90;;;;;;5115827;27;20336;-71
2021/12/16 04:47:16;;;;;;;;;;;7.70;99.90;;;;;;5114727;27;20006;-71
2021/12/16 04:49:42;;;;;;;;;;;7.70;99.90;;;;;;5115606;27;19973;-71
2021/12/16 04:52:10;;;;;;;;;;;7.70;99.90;;;;;;5116111;27;19962;-71
2021/12/16 04:54:36;;;;;;;;;;;7.70;99.90;;;;;;5115737;27;19967;-70
2021/12/16 04:57:02;;;;;;;;;;;7.80;99.90;;;;;;5115062;27;20318;-71
2021/12/16 04:59:28;;;;;;;;;;;7.80;99.90;;;;;;5113477;27;19922;-70
2021/12/16 05:01:55;;;;;;;;;;;7.80;99.90;;;;;;5113834;27;19953;-71
2021/12/16 05:04:21;;;;;;;;;;;7.70;99.90;;;;;;5114061;27;19916;-71
2021/12/16 05:06:47;;;;;;;;;;;7.70;99.90;;;;;;5114442;27;19923;-71
2021/12/16 05:09:30;;;;;;;;;;;7.70;99.90;;;;;;5115367;27;20350;-71
2021/12/16 05:11:56;;;;;;;;;;;7.80;99.90;;;;;;5115845;27;19919;-70
2021/12/16 05:14:21;;;;;;;;;;;7.80;99.90;;;;;;5111156;27;19938;-70
2021/12/16 05:16:47;;;;;;;;;;;7.80;99.90;;;;;;5112203;27;20366;-71
2021/12/16 05:19:12;;;;;;;;;;;7.80;99.90;;;;;;5115648;27;19923;-70
2021/12/16 05:26:39;;;;;;;;;;;7.90;99.90;;;;;;5115989;27;20323;-70
2021/12/16 05:29:05;;;;;;;;;;;7.90;99.90;;;;;;5102715;27;19930;-70
2021/12/16 05:31:30;;;;;;;;;;;7.90;99.90;;;;;;5107087;27;19992;-70
2021/12/16 05:33:57;;;;;;;;;;;7.90;99.90;;;;;;5115620;27;19915;-71
2021/12/16 05:36:22;;;;;;;;;;;7.80;99.90;;;;;;5114509;27;19965;-70
2021/12/16 05:38:48;;;;;;;;;;;7.90;99.90;;;;;;5113680;27;19923;-71
2021/12/16 05:41:15;;;;;;;;;;;7.80;99.90;;;;;;5115062;27;19981;-71
2021/12/16 05:43:41;;;;;;;;;;;7.80;99.90;;;;;;5112062;27;19968;-71
2021/12/16 05:46:07;;;;;;;;;;;7.70;99.90;;;;;;5114024;27;20278;-71
2021/12/16 05:48:35;;;;;;;;;;;7.70;99.90;;;;;;5115623;27;20006;-71
2021/12/16 05:51:03;;;;;;;;;;;7.60;99.90;;;;;;5109653;27;19983;-71
2021/12/16 05:53:29;;;;;;;;;;;7.50;99.90;;;;;;5111458;27;19916;-70
2021/12/16 05:55:56;;;;;;;;;;;7.50;99.90;;;;;;5115391;27;19922;-71
2021/12/16 05:58:22;;;;;;;;;;;7.40;99.90;;;;;;5109203;27;19915;-70
2021/12/16 06:00:49;;;;;;;;;;;7.40;99.90;;;;;;5114949;27;19915;-70
2021/12/16 06:03:15;;;;;;;;;;;7.40;99.90;;;;;;5107607;27;21319;-70
2021/12/16 06:05:40;;;;;;;;;;;7.40;99.90;;;;;;5114137;27;19916;-70
2021/12/16 06:08:06;;;;;;;;;;;7.40;99.90;;;;;;5115486;27;19915;-71
2021/12/16 06:13:10;;;;;;;;;;;7.50;99.90;;;;;;5114412;27;19961;-71
2021/12/16 06:16:00;;;;;;;;;;;7.50;99.90;;;;;;5114957;27;20282;-70
2021/12/16 06:27:27;;;;;;;;;;;7.50;99.90;;;;;;5111406;27;19922;-70
2021/12/16 06:29:25;;;;;;;;;;;7.50;99.90;;;;;;5097138;27;19923;-70
2021/12/16 06:31:51;;;;;;;;;;;7.50;99.90;;;;;;5111371;27;20538;-70
2021/12/16 06:34:16;;;;;;;;;;;7.50;99.90;;;;;;5113775;27;20439;-70
2021/12/16 06:36:42;;;;;;;;;;;7.50;99.90;;;;;;5097644;27;19921;-70
2021/12/16 06:39:07;;;;;;;;;;;7.40;99.90;;;;;;5111348;27;20024;-70
2021/12/16 06:41:37;;;;;;;;;;;7.40;99.90;;;;;;5114120;27;19921;-70
2021/12/16 06:44:07;;;;;;;;;;;7.50;99.90;;;;;;5114508;27;19998;-70
2021/12/16 06:46:36;;;;;;;;;;;7.40;99.90;;;;;;5103748;27;19950;-71
2021/12/16 06:49:03;;;;;;;;;;;7.40;99.90;;;;;;5105687;27;19915;-70
2021/12/16 06:51:47;;;;;;;;;;;7.40;99.90;;;;;;5112291;27;20006;-70
2021/12/16 06:54:20;;;;;;;;;;;7.40;99.90;;;;;;5113717;27;20323;-71
2021/12/16 06:56:59;;;;;;;;;;;7.40;99.90;;;;;;5111990;27;19915;-70
2021/12/16 06:59:30;;;;;;;;;;;7.30;99.90;;;;;;5123670;27;19915;-71
2021/12/16 07:02:06;;;;;;;;;;;7.20;99.90;;;;;;5113952;27;19915;-70
2021/12/16 07:04:32;;;;;;;;;;;7.20;99.90;;;;;;5114304;27;20353;-70
2021/12/16 07:06:58;;;;;;;;;;;7.20;99.90;;;;;;5114248;27;19915;-71
2021/12/16 07:09:23;;;;;;;;;;;7.10;99.90;;;;;;5113452;27;19983;-71
2021/12/16 07:11:53;;;;;;;;;;;7.00;99.90;;;;;;5112923;27;19923;-70
2021/12/16 07:14:23;;;;;;;;;;;6.90;99.90;;;;;;5114591;27;19916;-70
2021/12/16 07:16:51;;;;;;;;;;;6.80;99.90;;;;;;5113939;27;19929;-70
2021/12/16 07:19:16;;;;;;;;;;;6.70;99.90;;;;;;5111299;27;19915;-71
2021/12/16 07:21:43;;;;;;;;;;;6.60;99.90;;;;;;5113741;27;19969;-71
2021/12/16 07:24:10;;;;;;;;;;;6.50;99.90;;;;;;5113964;27;19923;-70
2021/12/16 07:26:36;;;;;;;;;;;6.50;99.90;;;;;;5113769;27;20351;-70
2021/12/16 07:29:02;;;;;;;;;;;6.50;99.90;;;;;;5113411;27;19915;-70
2021/12/16 07:31:28;;;;;;;;;;;6.40;99.90;;;;;;5113287;27;19919;-71
2021/12/16 07:33:55;;;;;;;;;;;6.40;99.90;;;;;;5108402;27;20325;-70
2021/12/16 07:36:21;;;;;;;;;;;6.40;99.90;;;;;;5110159;28;19915;-71
2021/12/16 07:38:47;;;;;;;;;;;6.40;99.90;;;;;;5101786;27;20434;-71
2021/12/16 07:41:13;;;;;;;;;;;6.40;99.90;;;;;;5113256;27;19922;-72
2021/12/16 07:46:11;;;;;;;;;;;6.50;99.90;;;;;;5113043;27;19916;-70
2021/12/16 07:48:37;;;;;;;;;;;6.60;99.90;;;;;;5112203;27;19915;-71
2021/12/16 07:51:03;;;;;;;;;;;6.60;99.90;;;;;;5109080;27;19924;-71
2021/12/16 07:53:29;;;;;;;;;;;6.60;99.90;;;;;;5109893;27;19915;-71
2021/12/16 07:55:54;;;;;;;;;;;6.60;99.90;;;;;;5095997;27;20307;-71
2021/12/16 07:58:20;;;;;;;;;;;6.60;99.90;;;;;;5112271;27;19923;-71
2021/12/16 08:00:46;;;;;;;;;;;6.70;99.90;;;;;;5111820;27;19915;-71
2021/12/16 08:03:12;;;;;;;;;;;6.70;99.90;;;;;;5112933;27;19923;-71
2021/12/16 08:05:40;;;;;;;;;;;6.70;99.90;;;;;;5124307;27;19931;-71
2021/12/16 08:08:07;;;;;;;;;;;6.70;99.90;;;;;;5129946;27;19919;-71
2021/12/16 08:10:33;;;;;;;;;;;6.70;99.90;;;;;;5115134;27;19919;-72
2021/12/16 08:12:58;;;;;;;;;;;6.70;99.90;;;;;;5102826;28;19926;-72
2021/12/16 08:15:24;;;;;;;;;;;6.70;99.90;;;;;;5114257;27;19930;-71
2021/12/16 08:17:49;;;;;;;;;;;6.70;99.90;;;;;;5111480;27;20377;-71
2021/12/16 08:20:18;;;;;;;;;;;6.70;99.90;;;;;;5117622;27;19921;-71
2021/12/16 08:22:45;;;;;;;;;;;6.70;99.90;;;;;;5116467;27;19915;-71
2021/12/16 08:25:11;;;;;;;;;;;6.60;99.90;;;;;;5119907;27;20224;-71
2021/12/16 08:27:39;;;;;;;;;;;6.60;99.90;;;;;;5097203;27;19998;-71
2021/12/16 08:30:06;;;;;;;;;;;6.60;99.90;;;;;;5119463;27;19919;-71
2021/12/16 08:32:32;;;;;;;;;;;6.60;99.90;;;;;;5118709;27;19927;-71
2021/12/16 08:34:57;;;;;;;;;;;6.60;99.90;;;;;;5116503;27;20332;-72
2021/12/16 08:37:24;;;;;;;;;;;6.50;99.90;;;;;;5110961;27;19955;-71
2021/12/16 08:39:50;;;;;;;;;;;6.60;99.90;;;;;;5116677;27;19919;-71
2021/12/16 08:42:15;;;;;;;;;;;6.50;99.90;;;;;;5119655;27;19919;-70
2021/12/16 08:44:41;;;;;;;;;;;6.50;99.90;;;;;;5120870;27;19915;-70
2021/12/16 08:47:08;;;;;;;;;;;6.50;99.90;;;;;;5118219;27;19919;-70
2021/12/16 08:49:34;;;;;;;;;;;6.50;99.90;;;;;;5115528;27;19962;-71
2021/12/16 08:52:04;;;;;;;;;;;6.50;99.90;;;;;;5115170;27;20007;-70
2021/12/16 08:54:30;;;;;;;;;;;6.50;99.90;;;;;;5119158;27;19922;-70
2021/12/16 08:56:55;;;;;;;;;;;6.60;99.90;;;;;;5118540;27;20349;-70
2021/12/16 08:59:21;;;;;;;;;;;6.60;99.90;;;;;;5119634;27;19937;-71
2021/12/16 09:01:48;;;;;;;;;;;6.60;99.90;;;;;;5118271;27;19923;-71
2021/12/16 09:04:19;;;;;;;;;;;6.60;99.90;;;;;;5094852;27;19927;-71
2021/12/16 09:06:46;;;;;;;;;;;6.60;99.90;;;;;;5117267;27;19967;-71
2021/12/16 09:09:12;;;;;;;;;;;6.60;99.90;;;;;;5119807;27;19919;-71
2021/12/16 09:11:43;;;;;;;;;;;6.60;99.90;;;;;;5118784;27;20390;-71
2021/12/16 09:14:09;;;;;;;;;;;6.60;99.90;;;;;;5119983;27;19922;-70
2021/12/16 09:16:35;;;;;;;;;;;6.60;99.90;;;;;;5119552;27;19915;-71
2021/12/16 09:19:00;;;;;;;;;;;6.70;99.90;;;;;;5119869;27;19915;-69
2021/12/16 09:21:28;;;;;;;;;;;6.70;99.90;;;;;;5102719;27;19938;-71
2021/12/16 09:23:55;;;;;;;;;;;6.70;99.90;;;;;;5103142;27;19998;-71
2021/12/16 09:26:20;;;;;;;;;;;6.70;99.90;;;;;;5137218;27;20010;-71
2021/12/16 09:28:46;;;;;;;;;;;6.80;99.90;;;;;;5113550;27;20014;-70
2021/12/16 09:31:13;;;;;;;;;;;6.80;99.90;;;;;;5116631;27;20434;-71
2021/12/16 09:33:43;;;;;;;;;;;6.90;99.90;;;;;;5114726;27;20286;-71
2021/12/16 09:36:10;;;;;;;;;;;6.90;99.90;;;;;;5114382;27;19977;-72
2021/12/16 09:38:36;;;;;;;;;;;6.90;99.90;;;;;;5116380;27;19915;-72
2021/12/16 09:41:01;;;;;;;;;;;6.90;99.90;;;;;;5093602;27;19915;-72
2021/12/16 09:43:29;;;;;;;;;;;6.90;99.90;;;;;;5101459;27;20131;-71
2021/12/16 09:45:57;;;;;;;;;;;7.00;99.90;;;;;;5115167;27;19915;-71
2021/12/16 09:48:24;;;;;;;;;;;6.90;99.90;;;;;;5115477;27;19919;-71
2021/12/16 09:50:50;;;;;;;;;;;7.00;99.90;;;;;;5114437;27;19942;-70
2021/12/16 09:53:16;;;;;;;;;;;6.90;99.90;;;;;;5109759;27;19916;-71
2021/12/16 09:55:44;;;;;;;;;;;7.00;99.90;;;;;;5113696;27;20293;-71
2021/12/16 09:58:09;;;;;;;;;;;6.90;99.90;;;;;;5108476;27;19920;-71
2021/12/16 10:00:35;;;;;;;;;;;7.00;99.90;;;;;;5112901;27;19938;-71
2021/12/16 10:03:01;;;;;;;;;;;7.00;99.90;;;;;;5115013;27;19919;-71
2021/12/16 10:05:27;;;;;;;;;;;7.00;99.90;;;;;;5112121;27;20018;-70
2021/12/16 10:07:53;;;;;;;;;;;7.00;99.90;;;;;;5097380;27;20027;-70
2021/12/16 10:10:24;;;;;;;;;;;6.90;99.90;;;;;;5115005;27;20033;-71
2021/12/16 10:12:51;;;;;;;;;;;7.10;99.90;;;;;;5101871;27;19915;-71
2021/12/16 10:17:58;;;;;;;;;;;7.10;99.90;;;;;;5115435;27;20278;-70
2021/12/16 10:20:59;;;;;;;;;;;7.10;99.90;;;;;;5112011;27;20270;-70
2021/12/16 10:23:31;;;;;;;;;;;7.10;99.90;;;;;;5032429;28;19917;-70
2021/12/16 10:25:58;;;;;;;;;;;7.10;99.90;;;;;;5091426;27;20009;-70
2021/12/16 10:28:31;;;;;;;;;;;7.20;99.90;;;;;;5114059;27;20014;-70
2021/12/16 10:31:04;;;;;;;;;;;7.20;99.90;;;;;;5114298;27;20341;-71
2021/12/16 10:33:29;;;;;;;;;;;7.30;99.90;;;;;;5109973;28;19915;-71
2021/12/16 10:36:04;;;;;;;;;;;7.30;99.90;;;;;;5113497;27;19923;-71
2021/12/16 10:38:33;;;;;;;;;;;7.40;99.90;;;;;;5105378;27;19966;-71
2021/12/16 10:40:58;;;;;;;;;;;7.50;99.90;;;;;;5112585;27;19919;-71
2021/12/16 10:43:30;;;;;;;;;;;7.50;99.90;;;;;;5113756;27;20423;-71
2021/12/16 10:46:02;;;;;;;;;;;7.60;99.90;;;;;;5097438;27;19974;-70
2021/12/16 10:48:32;;;;;;;;;;;7.60;99.90;;;;;;5114158;27;20011;-70
2021/12/16 10:51:06;;;;;;;;;;;7.70;99.90;;;;;;5113266;27;19927;-70
2021/12/16 10:53:47;;;;;;;;;;;7.80;99.90;;;;;;5106361;27;19946;-70
2021/12/16 10:56:13;;;;;;;;;;;7.80;99.90;;;;;;5114293;27;19922;-70
2021/12/16 10:58:44;;;;;;;;;;;7.80;99.90;;;;;;5114062;27;19915;-71
2021/12/16 11:01:30;;;;;;;;;;;7.90;99.90;;;;;;5131068;27;19915;-71
2021/12/16 11:03:56;;;;;;;;;;;7.80;99.90;;;;;;5116673;27;19915;-70
2021/12/16 11:06:29;;;;;;;;;;;7.80;99.90;;;;;;5091231;27;19919;-70
2021/12/16 11:09:15;;;;;;;;;;;7.70;99.90;;;;;;5093961;27;20335;-70
2021/12/16 11:11:40;;;;;;;;;;;7.80;99.90;;;;;;5114186;27;19919;-70
2021/12/16 11:14:06;;;;;;;;;;;7.90;99.90;;;;;;5113820;27;19930;-71
2021/12/16 11:16:32;;;;;;;;;;;7.90;99.90;;;;;;5113769;27;20010;-69
2021/12/16 11:18:58;;;;;;;;;;;7.90;99.90;;;;;;5113622;27;19919;-70
2021/12/16 11:21:30;;;;;;;;;;;8.00;99.90;;;;;;5114083;27;20010;-70
2021/12/16 11:23:56;;;;;;;;;;;8.00;99.90;;;;;;5107068;27;19922;-70
2021/12/16 11:26:28;;;;;;;;;;;8.00;99.90;;;;;;5102200;27;20301;-69
2021/12/16 11:28:54;;;;;;;;;;;8.00;99.90;;;;;;5112570;27;19920;-70
2021/12/16 11:31:23;;;;;;;;;;;8.00;99.90;;;;;;5113189;27;19919;-70
2021/12/16 11:33:50;;;;;;;;;;;8.00;99.90;;;;;;5094882;27;19919;-70
2021/12/16 11:36:18;;;;;;;;;;;8.00;99.90;;;;;;5106898;27;19923;-70
2021/12/16 11:38:47;;;;;;;;;;;8.00;99.90;;;;;;5111986;27;19946;-70
2021/12/16 11:41:20;;;;;;;;;;;8.10;99.90;;;;;;5109122;28;20010;-70
2021/12/16 11:43:52;;;;;;;;;;;8.00;99.90;;;;;;5112906;27;19915;-70
2021/12/16 11:46:23;;;;;;;;;;;8.00;99.90;;;;;;5093762;28;19924;-70
2021/12/16 11:48:50;;;;;;;;;;;7.90;99.90;;;;;;5106038;27;20038;-70
2021/12/16 11:51:22;;;;;;;;;;;7.90;99.90;;;;;;5112645;27;20447;-70
2021/12/16 11:53:50;;;;;;;;;;;7.90;99.90;;;;;;5113353;27;19961;-70
2021/12/16 11:56:17;;;;;;;;;;;8.00;99.90;;;;;;5113836;27;20377;-69
2021/12/16 11:58:43;;;;;;;;;;;8.00;99.90;;;;;;5112608;27;20288;-70
2021/12/16 12:01:10;;;;;;;;;;;8.00;99.90;;;;;;5095608;27;19938;-69
2021/12/16 12:03:36;;;;;;;;;;;8.00;99.90;;;;;;5113228;27;19944;-69
2021/12/16 12:06:01;;;;;;;;;;;8.00;99.90;;;;;;5096644;27;20299;-70
2021/12/16 12:08:30;;;;;;;;;;;8.00;99.90;;;;;;5113483;28;19915;-70
2021/12/16 12:10:59;;;;;;;;;;;8.10;99.90;;;;;;5112643;28;19945;-70
2021/12/16 12:13:26;;;;;;;;;;;8.00;99.90;;;;;;5113017;28;19965;-70
2021/12/16 12:16:04;;;;;;;;;;;8.00;99.90;;;;;;5111150;28;19964;-69
2021/12/16 12:18:44;;;;;;;;;;;8.00;99.90;;;;;;5092937;28;19915;-70
2021/12/16 12:21:22;;;;;;;;;;;8.10;99.90;;;;;;5109672;28;19915;-70
2021/12/16 12:23:48;;;;;;;;;;;8.10;99.90;;;;;;5112941;28;19969;-70
2021/12/16 12:26:16;;;;;;;;;;;8.10;99.90;;;;;;5113116;28;19915;-70
2021/12/16 12:29:02;;;;;;;;;;;8.10;99.90;;;;;;5109895;27;19919;-71
2021/12/16 12:31:29;;;;;;;;;;;8.10;99.90;;;;;;5111354;28;19962;-70
2021/12/16 12:33:55;;;;;;;;;;;8.10;99.90;;;;;;5112506;28;19922;-70
2021/12/16 12:36:22;;;;;;;;;;;8.10;99.90;;;;;;5086525;27;20301;-69
2021/12/16 12:38:47;;;;;;;;;;;8.20;99.90;;;;;;5111977;28;20316;-70
2021/12/16 12:41:13;;;;;;;;;;;8.20;99.90;;;;;;5113499;28;19933;-70
2021/12/16 12:43:39;;;;;;;;;;;8.20;99.90;;;;;;5111567;28;19982;-70
2021/12/16 12:46:05;;;;;;;;;;;8.20;99.90;;;;;;5111701;28;20262;-70
2021/12/16 12:48:33;;;;;;;;;;;8.20;99.90;;;;;;5113418;28;19971;-70
2021/12/16 12:50:58;;;;;;;;;;;8.20;99.90;;;;;;5095836;28;20000;-70
2021/12/16 12:53:26;;;;;;;;;;;8.10;99.90;;;;;;5112737;28;20026;-70
2021/12/16 12:55:56;;;;;;;;;;;8.00;99.90;;;;;;5096212;28;19998;-71
2021/12/16 12:58:23;;;;;;;;;;;8.00;99.90;;;;;;5111563;28;20411;-70
2021/12/16 13:00:54;;;;;;;;;;;7.90;99.90;;;;;;5111994;28;19927;-70
2021/12/16 13:03:27;;;;;;;;;;;7.90;99.90;;;;;;5114563;27;20372;-70
2021/12/16 13:05:54;;;;;;;;;;;7.90;99.90;;;;;;5116605;27;19961;-70
2021/12/16 13:08:28;;;;;;;;;;;7.90;99.90;;;;;;5116195;27;19923;-71
2021/12/16 13:10:57;;;;;;;;;;;7.90;99.90;;;;;;5110759;27;19929;-71
2021/12/16 13:13:31;;;;;;;;;;;7.90;99.90;;;;;;5116083;27;19952;-70
2021/12/16 13:25:03;;;;;;;;;;;7.90;99.90;;;;;;5114850;27;19958;-70
2021/12/16 13:29:53;;;;;;;;;;;7.90;99.90;;;;;;5115057;27;19919;-70
2021/12/16 13:33:08;;;;;;;;;;;7.90;99.90;;;;;;5116177;27;19966;-70
2021/12/16 13:35:22;;;;;;;;;;;8.00;99.90;;;;;;5105575;27;19919;-70
2021/12/16 13:37:49;;;;;;;;;;;8.00;99.90;;;;;;5113090;27;19980;-71
2021/12/16 13:40:21;;;;;;;;;;;8.00;99.90;;;;;;5107960;27;19915;-70
2021/12/16 13:42:54;;;;;;;;;;;8.00;99.90;;;;;;5113760;27;20281;-71
2021/12/16 13:45:46;;;;;;;;;;;8.00;99.90;;;;;;5115466;27;20293;-71
2021/12/16 14:03:23;;;;;;;;;;;8.00;99.90;;;;;;5114078;27;19930;-71
2021/12/16 14:05:57;;;;;;;;;;;8.00;99.90;;;;;;5112305;27;19919;-70
2021/12/16 14:08:49;;;;;;;;;;;8.00;99.90;;;;;;5113991;27;19915;-72
2021/12/16 14:17:44;;;;;;;;;;;8.00;99.90;;;;;;5113338;27;19923;-71
2021/12/16 14:23:08;;;;;;;;;;;8.00;99.90;;;;;;5113920;27;19922;-70
2021/12/16 14:25:41;;;;;;;;;;;8.00;99.90;;;;;;5112372;27;19915;-71
2021/12/16 14:43:51;;;;;;;;;;;8.00;99.90;;;;;;5113604;27;19920;-70
2021/12/16 14:46:23;;;;;;;;;;;8.00;99.90;;;;;;5112704;27;19938;-71
2021/12/16 14:48:48;;;;;;;;;;;8.00;99.90;;;;;;5112911;27;19926;-70
2021/12/16 14:51:15;;;;;;;;;;;8.00;99.90;;;;;;5112524;27;19935;-71
2021/12/16 14:53:45;;;;;;;;;;;8.00;99.90;;;;;;5114194;27;19998;-71
2021/12/16 14:56:14;;;;;;;;;;;8.00;99.90;;;;;;5114088;27;19915;-70
2021/12/16 14:58:41;;;;;;;;;;;8.00;99.90;;;;;;5110895;27;19922;-71
2021/12/16 15:01:07;;;;;;;;;;;8.00;99.90;;;;;;5110872;27;19922;-70
2021/12/16 15:03:37;;;;;;;;;;;8.00;99.90;;;;;;5112197;27;19923;-71
2021/12/16 15:06:04;;;;;;;;;;;7.90;99.90;;;;;;5109997;27;20358;-71
2021/12/16 15:08:42;;;;;;;;;;;7.90;99.90;;;;;;5105359;27;19937;-71
2021/12/16 15:11:10;;;;;;;;;;;7.90;99.90;;;;;;5113185;27;20386;-71
2021/12/16 15:13:46;;;;;;;;;;;7.90;99.90;;;;;;5104825;27;20018;-70
2021/12/16 15:16:36;;;;;;;;;;;7.90;99.90;;;;;;5096133;27;19915;-70
2021/12/16 15:36:32;;;;;;;;;;;7.80;99.90;;;;;;5110653;27;20039;-70
2021/12/16 15:44:06;;;;;;;;;;;7.80;99.90;;;;;;5110507;27;19923;-71
2021/12/16 15:46:32;;;;;;;;;;;7.80;99.90;;;;;;5111057;27;20294;-72
2021/12/16 15:48:58;;;;;;;;;;;7.70;99.90;;;;;;5111979;27;19919;-71
2021/12/16 15:51:24;;;;;;;;;;;7.70;99.90;;;;;;5107621;27;19927;-71
2021/12/16 15:53:56;;;;;;;;;;;7.70;99.90;;;;;;5105620;27;19941;-72
2021/12/16 15:56:21;;;;;;;;;;;7.70;99.90;;;;;;5110128;27;19915;-72
2021/12/16 15:59:08;;;;;;;;;;;7.70;99.90;;;;;;5105316;27;19923;-71
2021/12/16 16:01:36;;;;;;;;;;;7.60;99.90;;;;;;5107637;27;19915;-72
2021/12/16 16:04:06;;;;;;;;;;;7.60;99.90;;;;;;5110011;27;19919;-72
2021/12/16 16:06:31;;;;;;;;;;;7.60;99.90;;;;;;5105413;27;19922;-71
2021/12/16 16:09:00;;;;;;;;;;;7.60;99.90;;;;;;5110715;28;19923;-72
2021/12/16 16:11:31;;;;;;;;;;;7.60;99.90;;;;;;5107364;27;19920;-71
2021/12/16 16:13:59;;;;;;;;;;;7.50;99.90;;;;;;5110954;28;19916;-71
2021/12/16 16:16:30;;;;;;;;;;;7.50;99.90;;;;;;5107239;28;19915;-72
2021/12/16 16:18:56;;;;;;;;;;;7.50;99.90;;;;;;5109805;27;19924;-72
2021/12/16 16:21:25;;;;;;;;;;;7.50;99.90;;;;;;5104698;28;19935;-72
2021/12/16 16:23:53;;;;;;;;;;;7.40;99.90;;;;;;5110728;28;20370;-72
2021/12/16 16:26:19;;;;;;;;;;;7.50;99.90;;;;;;5111262;28;20349;-72
2021/12/16 16:28:46;;;;;;;;;;;7.40;99.90;;;;;;5107849;28;19919;-72
2021/12/16 16:31:13;;;;;;;;;;;7.40;99.90;;;;;;5128543;28;19923;-72
2021/12/16 16:33:38;;;;;;;;;;;7.40;99.90;;;;;;5112240;28;19919;-72
2021/12/16 16:36:09;;;;;;;;;;;7.40;99.90;;;;;;5112234;28;19921;-72
2021/12/16 16:38:37;;;;;;;;;;;7.40;99.90;;;;;;5130992;27;20460;-72
2021/12/16 16:41:06;;;;;;;;;;;7.40;99.90;;;;;;5118174;27;19922;-72
2021/12/16 16:43:33;;;;;;;;;;;7.40;99.90;;;;;;5115273;27;19922;-72
2021/12/16 16:46:01;;;;;;;;;;;7.40;99.90;;;;;;5116844;27;19964;-72
2021/12/16 16:48:34;;;;;;;;;;;7.40;99.90;;;;;;5116658;27;19935;-72
2021/12/16 16:51:04;;;;;;;;;;;7.40;99.90;;;;;;5098820;27;20355;-72
2021/12/16 16:53:29;;;;;;;;;;;7.40;99.90;;;;;;5117749;27;19964;-72
2021/12/16 16:55:55;;;;;;;;;;;7.40;99.90;;;;;;5113812;27;19919;-72
2021/12/16 16:58:20;;;;;;;;;;;7.40;99.90;;;;;;5111941;27;20319;-71
2021/12/16 17:00:50;;;;;;;;;;;7.40;99.90;;;;;;5117490;27;19972;-72
2021/12/16 17:03:17;;;;;;;;;;;7.40;99.90;;;;;;5117445;27;20326;-72
2021/12/16 17:05:50;;;;;;;;;;;7.40;99.90;;;;;;5117137;27;20293;-72
2021/12/16 17:08:17;;;;;;;;;;;7.50;99.90;;;;;;5115375;27;19915;-72
2021/12/16 17:10:47;;;;;;;;;;;7.40;99.90;;;;;;5114606;27;20314;-72
2021/12/16 17:13:18;;;;;;;;;;;7.40;99.90;;;;;;5099255;27;19998;-72
2021/12/16 17:18:20;;;;;;;;;;;7.40;99.90;;;;;;5112228;27;19960;-72
2021/12/16 17:20:46;;;;;;;;;;;7.50;99.90;;;;;;5105043;27;20271;-72
2021/12/16 17:23:13;;;;;;;;;;;7.50;99.90;;;;;;5112248;27;19929;-72
2021/12/16 17:25:39;;;;;;;;;;;7.50;99.90;;;;;;5109954;27;19924;-72
2021/12/16 17:28:05;;;;;;;;;;;7.50;99.90;;;;;;5109003;27;19934;-72
2021/12/16 17:30:32;;;;;;;;;;;7.50;99.90;;;;;;5114216;27;19919;-72
2021/12/16 17:32:58;;;;;;;;;;;7.40;99.90;;;;;;5116068;27;19919;-72
2021/12/16 17:35:29;;;;;;;;;;;7.50;99.90;;;;;;5115714;27;19934;-72
2021/12/16 17:38:00;;;;;;;;;;;7.50;99.90;;;;;;5117517;27;19972;-72
2021/12/16 17:40:25;;;;;;;;;;;7.50;99.90;;;;;;5114170;27;19961;-72
2021/12/16 17:42:53;;;;;;;;;;;7.50;99.90;;;;;;5107579;27;20354;-72
2021/12/16 17:45:19;;;;;;;;;;;7.50;99.90;;;;;;5097096;27;20019;-72
2021/12/16 17:47:44;;;;;;;;;;;7.60;99.90;;;;;;5116192;27;19966;-72
2021/12/16 17:50:15;;;;;;;;;;;7.60;99.90;;;;;;5105739;27;20361;-72
2021/12/16 17:52:41;;;;;;;;;;;7.60;99.90;;;;;;5114144;27;20005;-72
2021/12/16 17:55:27;;;;;;;;;;;7.60;99.90;;;;;;5115801;27;19916;-72
2021/12/16 17:58:01;;;;;;;;;;;7.60;99.90;;;;;;5114247;27;19919;-72
2021/12/16 18:00:36;;;;;;;;;;;7.60;99.90;;;;;;5112256;27;20336;-72
2021/12/16 18:03:03;;;;;;;;;;;7.70;99.90;;;;;;5114844;27;19973;-72
2021/12/16 18:05:37;;;;;;;;;;;7.70;99.90;;;;;;5109259;27;19923;-72
2021/12/16 18:08:03;;;;;;;;;;;7.70;99.90;;;;;;5097247;27;20380;-72
2021/12/16 18:10:29;;;;;;;;;;;7.70;99.90;;;;;;5094458;28;19927;-72